Macapa, Brazil
Current Conditions -  °F | °C
As of 8:00 AM on Friday 21 Nov 2014 (Local Time) from SBMQ Reporting Station
Scattered Clouds Scattered Clouds  
Wind Chill: 82°   Ceiling: Unl
Heat Index: 89°   Visibility: 6mi
Dew Point: 75°   Wind: 5mph
Humidity: 79%   Direction: 70°ENE
Pressure: 29.83"   Gusts: NA
Location:  0.04°N, 51.05°W
Report Text: SBMQ 211100Z 07004KT 9999 SCT017 28/24 Q1010
Loading
Personal Weather Stations






























Interactive Weather Map New forecast layout! Learn more

10-Day Weather Forecast

Advertisements
Track Severe Weather on mobile